RJOARJOI

Guest
Details From RJOA - HIROSHIMA
To RJOI - IWAKUNI MCAS
Flight Number -
Tags generated
Created
Modified
Stats Distance 39 nm / 72 km
Max Altitude 3,500 ft / 1,067 m
Waypoints 3
Social Downloads 1
Likes 0
Share VATSIM

Download

Looking for another format? Having issues loading an existing format? Contact us
Advertisement - Login to hide

Notes

Basic altitude profile: - Ascent Rate: 2500ft/min - Ascent Speed: 250kts - Cruise Altitude: 35000ft - Cruise Speed: 420kts - Descent Rate: 1500ft/min - Descent Speed: 250kts Options: - Use NATs: yes - Use PACOTS: yes - Use low airways: yes - Use high airways: yes

Route

RJOA ONDOC RJOI

ID Type Via Altitude Latitude Longitude Leg Dist Tot Dist Heading (true) Name
O RJOA APT - 0 ft / 0 m 34.43603˚ 132.91944˚ - 0 nm - HIROSHIMA
ONDOC FIX - 3,500 ft / 1,067 m 34.20938˚ 132.55553˚ 22 nm 22 nm 233° / 233° -
O RJOI APT - 0 ft / 0 m 34.14252˚ 132.23633˚ 16 nm 38 nm 256° / 256° IWAKUNI MCAS

Altitude Profile

Advertisement - Login to hide

RJOA

Details ICAO RJOA (HIJ)
Name HIROSHIMA
Region Japan
Timezone Asia/Tokyo (UTC+9.0)
Stats Elevation 1,088 ft / 332 m (AMSL)
Location 34.436025° 132.919444°
Runways 1
Magnetic Variation 7.697° W

METAR

RJOA 182200Z 29004KT 9999 -SHRA FEW020 BKN040 03/01 Q1022

Decode

TAF

TAF RJOA 181705Z 1818/2000 28005KT 9999 FEW020 BKN040 BECMG 1900/1902 30015KT BECMG 1909/1912 32005KT

Decode

Departure Runways

ID Width Length Bearing (true) Bearing (mag) Surface Threshold Offset Overrun Length
10 200 ft / 61 m 9,823 ft / 2,994 m 89.99° 97.69° Asphalt 0 ft / 0 m 210 ft / 64 m
28 200 ft / 61 m 9,823 ft / 2,994 m 270.01° 277.71° Asphalt 0 ft / 0 m 210 ft / 64 m

RJOI

Details ICAO RJOI
Name IWAKUNI MCAS
Region Japan
Timezone Asia/Tokyo (UTC+9.0)
Stats Elevation 7 ft / 2 m (AMSL)
Location 34.142515° 132.236335°
Runways 2
Magnetic Variation 7.622° W

METAR

RJOI 182155Z 00000KT 9999 FEW025 BKN060 BKN200 07/02 A3025 RMK SLP243 T00720022

Decode

TAF

TAF RJOI 1821/1921 VRB04KT 9999 VCSH FEW020 SCT035 BKN050 BKN200 620206 QNH3022INS FM182300 30010KT 9999 VCSH SCT020 SCT035 BKN050 BKN200 620206 QNH3021INS TEMPO 1902/1908 31012G18KT FM190900 32009KT 9999 SCT030 SCT050 620204 QNH3026INS FM191200 VRB05KT 9999 FEW030 600000 QNH3030INS FM191800 VRB05KT 9999 SCT030 QNH3032INS T08/1905Z T01/1921Z

Decode

Destination Runways

ID Width Length Bearing (true) Bearing (mag) Surface Threshold Offset Overrun Length
02 150 ft / 46 m 8,019 ft / 2,444 m 9.19° 16.81° Concrete 0 ft / 0 m 1,000 ft / 305 m
02R 150 ft / 46 m 1,202 ft / 366 m 9.29° 16.91° Concrete 0 ft / 0 m 0 ft / 0 m
20 150 ft / 46 m 8,019 ft / 2,444 m 189.19° 196.81° Concrete 0 ft / 0 m 1,000 ft / 305 m
20L 150 ft / 46 m 1,202 ft / 366 m 189.29° 196.91° Concrete 0 ft / 0 m 0 ft / 0 m